createdAt,value
2018-01-25T00:01:35.080Z,-1.06
2018-01-25T00:04:01.431Z,-1.20
2018-01-25T00:06:27.705Z,-1.04
2018-01-25T00:08:53.944Z,-1.00
2018-01-25T00:11:20.160Z,-1.22
2018-01-25T00:13:46.388Z,-1.41
2018-01-25T00:16:12.685Z,-1.73
2018-01-25T00:18:38.913Z,-1.29
2018-01-25T00:21:05.121Z,-1.51
2018-01-25T00:23:31.392Z,-1.21
2018-01-25T00:25:57.648Z,-1.02
2018-01-25T00:28:23.824Z,-0.87
2018-01-25T00:30:50.105Z,-1.20
2018-01-25T00:33:16.364Z,-0.94
2018-01-25T00:35:42.561Z,-0.96
2018-01-25T00:38:08.808Z,-1.07
2018-01-25T00:40:35.044Z,-1.30
2018-01-25T00:43:01.307Z,-0.99
2018-01-25T00:45:27.572Z,-0.85
2018-01-25T00:47:53.796Z,-0.94
2018-01-25T00:50:20.007Z,-0.91
2018-01-25T00:52:46.220Z,-1.02
2018-01-25T00:55:12.464Z,-0.94
2018-01-25T00:57:38.773Z,-1.25
2018-01-25T01:00:05.037Z,-1.19
2018-01-25T01:02:31.228Z,-1.06
2018-01-25T01:04:57.460Z,-1.27
2018-01-25T01:07:23.708Z,-1.11
2018-01-25T01:09:49.981Z,-1.41
2018-01-25T01:12:16.212Z,-1.24
2018-01-25T01:14:42.492Z,-1.27
2018-01-25T01:17:08.793Z,-1.23
2018-01-25T01:19:34.985Z,-1.24
2018-01-25T01:22:01.204Z,-1.42
2018-01-25T01:24:27.449Z,-1.24
2018-01-25T01:26:53.668Z,-1.40
2018-01-25T01:29:19.914Z,-1.31
2018-01-25T01:31:46.193Z,-1.22
2018-01-25T01:34:12.409Z,-1.20
2018-01-25T01:36:38.596Z,-1.31
2018-01-25T01:39:04.845Z,-1.43
2018-01-25T01:41:31.072Z,-1.41
2018-01-25T01:43:57.256Z,-1.52
2018-01-25T01:46:23.545Z,-1.58
2018-01-25T01:48:49.777Z,-1.53
2018-01-25T01:51:15.961Z,-1.69
2018-01-25T01:53:42.212Z,-1.70
2018-01-25T01:56:08.408Z,-1.92
2018-01-25T01:58:34.620Z,-1.76
2018-01-25T02:01:00.920Z,-1.74
2018-01-25T02:03:27.244Z,-1.63
2018-01-25T02:05:53.494Z,-1.76
2018-01-25T02:08:19.816Z,-1.69
2018-01-25T02:10:46.035Z,-1.74
2018-01-25T02:13:12.241Z,-1.89
2018-01-25T02:15:38.477Z,-1.87
2018-01-25T02:18:04.721Z,-1.73
2018-01-25T02:20:30.972Z,-1.87
2018-01-25T02:22:57.301Z,-2.00
2018-01-25T02:25:23.501Z,-2.09
2018-01-25T02:27:49.758Z,-2.01
2018-01-25T02:30:16.085Z,-2.28
2018-01-25T02:32:42.289Z,-2.06
2018-01-25T02:35:08.521Z,-2.02
2018-01-25T02:37:34.775Z,-2.17
2018-01-25T02:40:01.009Z,-2.25
2018-01-25T02:42:27.231Z,-2.17
2018-01-25T02:44:53.401Z,-2.29
2018-01-25T02:47:19.569Z,-2.34
2018-01-25T02:49:45.791Z,-2.49
2018-01-25T02:52:12.057Z,-2.40
2018-01-25T02:54:38.380Z,-2.62
2018-01-25T02:57:04.609Z,-2.35
2018-01-25T02:59:30.776Z,-2.43
2018-01-25T03:01:56.998Z,-2.34
2018-01-25T03:04:23.287Z,-2.55
2018-01-25T03:06:49.457Z,-2.52
2018-01-25T03:09:15.653Z,-2.77
2018-01-25T03:11:41.976Z,-2.82
2018-01-25T03:14:08.176Z,-2.87
2018-01-25T03:16:34.361Z,-2.78
2018-01-25T03:19:00.554Z,-2.58
2018-01-25T03:21:26.768Z,-2.54
2018-01-25T03:23:52.992Z,-2.91
2018-01-25T03:26:19.218Z,-2.66
2018-01-25T03:28:45.400Z,-2.55
2018-01-25T03:31:11.625Z,-2.66
2018-01-25T03:33:37.857Z,-2.75
2018-01-25T03:36:04.100Z,-2.75
2018-01-25T03:38:30.293Z,-2.57
2018-01-25T03:40:56.496Z,-2.69
2018-01-25T03:43:22.717Z,-2.67
2018-01-25T03:45:48.940Z,-2.77
2018-01-25T03:48:15.168Z,-2.56
2018-01-25T03:50:41.386Z,-2.81
2018-01-25T03:53:07.556Z,-2.62
2018-01-25T03:55:33.713Z,-2.52
2018-01-25T03:57:59.982Z,-2.55
2018-01-25T04:00:26.189Z,-2.46
2018-01-25T04:02:52.397Z,-2.75
2018-01-25T04:05:18.608Z,-2.66
2018-01-25T04:07:44.957Z,-2.65
2018-01-25T04:10:11.136Z,-2.66
2018-01-25T04:12:37.309Z,-2.83
2018-01-25T04:15:03.484Z,-2.86
2018-01-25T04:17:29.753Z,-2.89
2018-01-25T04:19:56.040Z,-2.95
2018-01-25T04:22:22.243Z,-2.96
2018-01-25T04:24:48.557Z,-2.75
2018-01-25T04:27:14.781Z,-2.65
2018-01-25T04:29:40.974Z,-2.87
2018-01-25T04:32:07.142Z,-2.78
2018-01-25T04:34:33.369Z,-2.66
2018-01-25T04:36:59.596Z,-2.78
2018-01-25T04:39:25.812Z,-2.67
2018-01-25T04:41:51.996Z,-2.73
2018-01-25T04:44:18.212Z,-2.68
2018-01-25T04:46:44.420Z,-2.68
2018-01-25T04:49:10.624Z,-2.62
2018-01-25T04:51:36.855Z,-2.64
2018-01-25T04:54:03.116Z,-2.62
2018-01-25T04:56:29.325Z,-2.62
2018-01-25T04:58:55.505Z,-2.69
2018-01-25T05:01:21.781Z,-2.67
2018-01-25T05:03:48.176Z,-2.63
2018-01-25T05:06:14.378Z,-2.60
2018-01-25T05:08:40.665Z,-2.71
2018-01-25T05:11:06.936Z,-2.83
2018-01-25T05:13:33.217Z,-3.18
2018-01-25T05:15:59.493Z,-3.01
2018-01-25T05:18:25.751Z,-3.01
2018-01-25T05:20:52.005Z,-3.04
2018-01-25T05:23:18.225Z,-3.34
2018-01-25T05:25:44.493Z,-2.98
2018-01-25T05:28:10.752Z,-3.03
2018-01-25T05:30:37.053Z,-2.96
2018-01-25T05:33:03.324Z,-2.94
2018-01-25T05:35:29.608Z,-3.08
2018-01-25T05:37:55.825Z,-3.05
2018-01-25T05:40:22.041Z,-3.18
2018-01-25T05:42:48.704Z,-3.11
2018-01-25T05:45:14.870Z,-3.14
2018-01-25T05:47:41.045Z,-3.16
2018-01-25T05:50:07.285Z,-3.21
2018-01-25T05:52:33.558Z,-3.27
2018-01-25T05:54:59.932Z,-3.33
2018-01-25T05:57:26.121Z,-3.48
2018-01-25T05:59:52.325Z,-3.19
2018-01-25T06:02:18.521Z,-3.05
2018-01-25T06:04:44.769Z,-2.89
2018-01-25T06:07:10.986Z,-2.98
2018-01-25T06:09:37.160Z,-3.05
2018-01-25T06:12:03.372Z,-3.07
2018-01-25T06:14:29.633Z,-3.16
2018-01-25T06:16:55.819Z,-2.88
2018-01-25T06:19:22.191Z,-2.75
2018-01-25T06:21:48.425Z,-2.75
2018-01-25T06:24:14.684Z,-2.69
2018-01-25T06:26:40.939Z,-2.96
2018-01-25T06:29:07.116Z,-2.77
2018-01-25T06:31:33.278Z,-2.66
2018-01-25T06:33:59.511Z,-2.65
2018-01-25T06:36:25.752Z,-2.54
2018-01-25T06:38:51.936Z,-2.73
2018-01-25T06:41:18.132Z,-2.49
2018-01-25T06:43:44.296Z,-2.55
2018-01-25T06:46:10.565Z,-2.61
2018-01-25T06:48:36.745Z,-2.41
2018-01-25T06:51:02.960Z,-2.59
2018-01-25T06:53:29.116Z,-2.39
2018-01-25T06:55:55.317Z,-2.34
2018-01-25T06:58:21.558Z,-2.32
2018-01-25T07:00:47.769Z,-2.34
2018-01-25T07:03:14.080Z,-2.44
2018-01-25T07:05:40.671Z,-2.38
2018-01-25T07:08:07.513Z,-2.14
2018-01-25T07:10:33.891Z,-2.17
2018-01-25T07:13:00.072Z,-2.39
2018-01-25T07:15:26.292Z,-2.29
2018-01-25T07:17:52.452Z,-1.98
2018-01-25T07:20:18.676Z,-1.83
2018-01-25T07:22:44.921Z,-1.81
2018-01-25T07:25:11.104Z,-1.71
2018-01-25T07:27:37.316Z,-1.70
2018-01-25T07:30:03.514Z,-1.69
2018-01-25T07:32:30.181Z,-1.59
2018-01-25T07:34:56.456Z,-1.58
2018-01-25T07:37:22.652Z,-1.62
2018-01-25T07:39:48.812Z,-1.56
2018-01-25T07:42:15.084Z,-1.51
2018-01-25T07:44:41.245Z,-1.49
2018-01-25T07:47:07.428Z,-1.49
2018-01-25T07:49:33.680Z,-1.41
2018-01-25T07:51:59.913Z,-1.53
2018-01-25T07:54:26.104Z,-1.45
2018-01-25T07:56:52.459Z,-1.27
2018-01-25T07:59:18.676Z,-1.22
2018-01-25T08:01:44.844Z,-1.15
2018-01-25T08:04:11.057Z,-1.08
2018-01-25T08:06:37.255Z,-1.02
2018-01-25T08:09:03.557Z,-1.15
2018-01-25T08:11:29.868Z,-0.86
2018-01-25T08:13:56.036Z,-0.71
2018-01-25T08:16:28.325Z,-0.54
2018-01-25T08:18:54.617Z,-0.75
2018-01-25T08:21:20.796Z,-0.65
2018-01-25T08:23:46.971Z,-0.69
2018-01-25T08:26:13.177Z,-0.80
2018-01-25T08:28:39.345Z,-0.70
2018-01-25T08:31:05.524Z,-0.58
2018-01-25T08:33:31.785Z,-0.73
2018-01-25T08:35:58.098Z,-0.52
2018-01-25T08:38:24.297Z,-0.32
2018-01-25T08:40:50.501Z,-0.22
2018-01-25T08:43:16.716Z,-0.19
2018-01-25T08:45:42.959Z,-0.32
2018-01-25T08:48:09.161Z,-0.02
2018-01-25T08:50:35.364Z,0.10
2018-01-25T08:53:01.591Z,0.40
2018-01-25T08:55:27.790Z,0.55
2018-01-25T08:57:54.080Z,0.61
2018-01-25T09:00:20.377Z,0.73
2018-01-25T09:02:46.644Z,0.57
2018-01-25T09:05:12.944Z,0.78
2018-01-25T09:07:39.241Z,0.73
2018-01-25T09:10:05.536Z,0.88
2018-01-25T09:12:31.740Z,1.07
2018-01-25T09:14:58.053Z,1.20
2018-01-25T09:17:24.244Z,1.32
2018-01-25T09:19:50.464Z,1.49
2018-01-25T09:22:16.764Z,1.64
2018-01-25T09:24:42.921Z,1.64
2018-01-25T09:27:09.176Z,1.67
2018-01-25T09:29:35.433Z,1.73
2018-01-25T09:32:01.720Z,1.92
2018-01-25T09:34:27.955Z,2.08
2018-01-25T09:36:54.181Z,2.19
2018-01-25T09:39:20.352Z,2.31
2018-01-25T09:41:46.689Z,2.42
2018-01-25T09:44:12.881Z,2.43
2018-01-25T09:46:39.153Z,2.56
2018-01-25T09:49:05.432Z,2.66
2018-01-25T09:51:31.661Z,2.72
2018-01-25T09:53:57.868Z,2.85
2018-01-25T09:56:24.161Z,2.98
2018-01-25T09:58:50.406Z,3.05
2018-01-25T10:01:16.610Z,3.09
2018-01-25T10:03:42.848Z,2.93
2018-01-25T10:06:09.137Z,3.06
2018-01-25T10:08:35.486Z,3.23
2018-01-25T10:11:01.690Z,3.31
2018-01-25T10:13:27.900Z,3.15
2018-01-25T10:15:54.152Z,3.33
2018-01-25T10:18:20.425Z,3.38
2018-01-25T10:20:46.612Z,3.41
2018-01-25T10:23:12.894Z,3.43
2018-01-25T10:25:39.105Z,3.67
2018-01-25T10:28:05.309Z,3.75
2018-01-25T10:30:31.573Z,3.74
2018-01-25T10:32:57.782Z,3.78
2018-01-25T10:35:23.976Z,3.55
2018-01-25T10:37:50.166Z,3.90
2018-01-25T10:40:16.429Z,3.95
2018-01-25T10:42:42.706Z,4.05
2018-01-25T10:45:09.003Z,4.11
2018-01-25T10:47:35.345Z,4.11
2018-01-25T10:50:01.726Z,3.97
2018-01-25T10:52:28.037Z,4.15
2018-01-25T10:54:54.273Z,4.13
2018-01-25T10:57:20.532Z,3.94
2018-01-25T10:59:46.768Z,4.00
2018-01-25T11:02:13.021Z,4.15
2018-01-25T11:04:39.312Z,4.25
2018-01-25T11:07:05.661Z,4.08
2018-01-25T11:09:31.879Z,4.08
2018-01-25T11:11:58.124Z,4.25
2018-01-25T11:14:24.418Z,4.19
2018-01-25T11:16:50.656Z,4.31
2018-01-25T11:19:16.902Z,4.38
2018-01-25T11:21:43.185Z,4.51
2018-01-25T11:24:09.364Z,4.46
2018-01-25T11:26:35.566Z,4.50
2018-01-25T11:29:01.812Z,4.46
2018-01-25T11:31:28.062Z,4.57
2018-01-25T11:33:54.280Z,4.63
2018-01-25T11:36:20.557Z,4.51
2018-01-25T11:38:46.733Z,4.53
2018-01-25T11:41:12.922Z,4.46
2018-01-25T11:43:39.141Z,4.56
2018-01-25T11:46:05.380Z,4.60
2018-01-25T11:48:31.609Z,4.40
2018-01-25T11:50:57.837Z,4.58
2018-01-25T11:53:24.235Z,4.57
2018-01-25T11:55:50.435Z,4.66
2018-01-25T11:58:16.765Z,4.71
2018-01-25T12:00:42.988Z,4.78
2018-01-25T12:03:09.216Z,4.82
2018-01-25T12:05:35.467Z,4.71
2018-01-25T12:08:01.646Z,4.65
2018-01-25T12:10:27.899Z,4.65
2018-01-25T12:12:54.052Z,4.65
2018-01-25T12:15:20.266Z,4.72
2018-01-25T12:17:46.745Z,4.79
2018-01-25T12:20:13.025Z,4.71
2018-01-25T12:22:39.233Z,4.86
2018-01-25T12:25:05.461Z,4.93
2018-01-25T12:27:31.726Z,4.91
2018-01-25T12:29:57.981Z,4.62
2018-01-25T12:32:24.173Z,4.76
2018-01-25T12:34:50.497Z,4.85
2018-01-25T12:37:16.665Z,4.70
2018-01-25T12:39:42.892Z,4.68
2018-01-25T12:42:09.181Z,4.67
2018-01-25T12:44:35.432Z,4.62
2018-01-25T12:47:01.684Z,4.48
2018-01-25T12:49:27.869Z,4.52
2018-01-25T12:51:54.064Z,4.73
2018-01-25T12:54:20.345Z,4.81
2018-01-25T12:56:46.595Z,4.77
2018-01-25T12:59:12.781Z,4.77
2018-01-25T13:01:38.960Z,4.77
2018-01-25T13:04:05.156Z,4.84
2018-01-25T13:06:31.353Z,4.85
2018-01-25T13:08:57.588Z,4.44
2018-01-25T13:11:23.836Z,4.50
2018-01-25T13:13:50.173Z,4.75
2018-01-25T13:16:16.381Z,4.84
2018-01-25T13:18:42.634Z,4.84
2018-01-25T13:21:08.912Z,4.76
2018-01-25T13:23:35.189Z,4.73
2018-01-25T13:26:01.433Z,4.77
2018-01-25T13:28:27.717Z,4.90
2018-01-25T13:30:54.082Z,4.86
2018-01-25T13:33:26.168Z,4.88
2018-01-25T13:35:52.436Z,4.84
2018-01-25T13:38:18.693Z,4.81
2018-01-25T13:40:44.901Z,4.82
2018-01-25T13:43:11.139Z,4.83
2018-01-25T13:45:37.369Z,4.79
2018-01-25T13:48:03.656Z,4.84
2018-01-25T13:50:29.877Z,4.83
2018-01-25T13:52:56.092Z,4.84
2018-01-25T13:55:22.365Z,4.72
2018-01-25T13:57:48.570Z,4.80
2018-01-25T14:00:14.740Z,4.80
2018-01-25T14:02:41.068Z,4.77
2018-01-25T14:05:07.317Z,4.77
2018-01-25T14:07:33.560Z,4.76
2018-01-25T14:09:59.828Z,4.76
2018-01-25T14:12:26.064Z,4.74
2018-01-25T14:14:52.405Z,4.74
2018-01-25T14:17:18.688Z,4.74
2018-01-25T14:19:44.901Z,4.72
2018-01-25T14:22:11.176Z,4.68
2018-01-25T14:24:37.405Z,4.68
2018-01-25T14:27:03.585Z,4.71
2018-01-25T14:29:29.860Z,4.71
2018-01-25T14:31:56.109Z,4.72
2018-01-25T14:34:22.342Z,4.66
2018-01-25T14:36:48.644Z,4.72
2018-01-25T14:39:14.867Z,4.64
2018-01-25T14:41:41.121Z,4.70
2018-01-25T14:44:07.297Z,4.68
2018-01-25T14:46:33.517Z,4.66
2018-01-25T14:48:59.784Z,4.62
2018-01-25T14:51:26.047Z,4.66
2018-01-25T14:53:52.297Z,4.59
2018-01-25T14:56:18.609Z,4.61
2018-01-25T14:58:44.835Z,4.60
2018-01-25T15:01:11.085Z,4.57
2018-01-25T15:03:37.360Z,4.53
2018-01-25T15:06:03.583Z,4.41
2018-01-25T15:08:29.813Z,4.42
2018-01-25T15:10:56.018Z,4.39
2018-01-25T15:13:22.257Z,4.37
2018-01-25T15:15:48.472Z,4.35
2018-01-25T15:18:14.705Z,4.33
2018-01-25T15:20:40.942Z,4.29
2018-01-25T15:23:07.141Z,4.25
2018-01-25T15:25:39.365Z,4.21
2018-01-25T15:28:05.565Z,4.17
2018-01-25T15:30:31.837Z,4.06
2018-01-25T15:32:58.216Z,4.10
2018-01-25T15:35:24.480Z,3.98
2018-01-25T15:37:50.889Z,4.02
2018-01-25T15:40:17.152Z,3.95
2018-01-25T15:42:43.358Z,3.91
2018-01-25T15:45:09.601Z,3.94
2018-01-25T15:47:35.840Z,3.95
2018-01-25T15:50:02.249Z,3.94
2018-01-25T15:52:28.477Z,3.94
2018-01-25T15:54:54.706Z,3.87
2018-01-25T15:57:20.904Z,3.84
2018-01-25T15:59:47.152Z,3.82
2018-01-25T16:02:13.438Z,3.80
2018-01-25T16:04:39.608Z,3.76
2018-01-25T16:07:05.824Z,3.74
2018-01-25T16:09:32.053Z,3.74
2018-01-25T16:11:58.293Z,3.71
2018-01-25T16:14:24.484Z,3.73
2018-01-25T16:16:50.722Z,3.69
2018-01-25T16:19:16.957Z,3.62
2018-01-25T16:21:43.172Z,3.65
2018-01-25T16:24:09.429Z,3.60
2018-01-25T16:26:35.640Z,3.54
2018-01-25T16:29:01.881Z,3.55
2018-01-25T16:31:28.108Z,3.54
2018-01-25T16:33:54.361Z,3.49
2018-01-25T16:36:20.593Z,3.39
2018-01-25T16:38:47.039Z,3.10
2018-01-25T16:41:13.124Z,3.05
2018-01-25T16:43:39.306Z,3.10
2018-01-25T16:46:05.616Z,3.07
2018-01-25T16:48:31.893Z,2.99
2018-01-25T16:50:58.074Z,2.83
2018-01-25T16:53:24.325Z,2.91
2018-01-25T16:55:50.640Z,2.86
2018-01-25T16:58:16.886Z,2.91
2018-01-25T17:00:43.158Z,2.88
2018-01-25T17:03:09.369Z,2.85
2018-01-25T17:05:35.624Z,2.73
2018-01-25T17:08:01.876Z,2.69
2018-01-25T17:10:28.129Z,2.72
2018-01-25T17:12:54.384Z,2.76
2018-01-25T17:15:20.589Z,2.73
2018-01-25T17:17:46.840Z,2.70
2018-01-25T17:20:13.085Z,2.72
2018-01-25T17:22:39.362Z,2.65
2018-01-25T17:25:05.709Z,2.59
2018-01-25T17:27:31.953Z,2.50
2018-01-25T17:29:58.188Z,2.42
2018-01-25T17:32:24.456Z,2.34
2018-01-25T17:34:50.712Z,2.22
2018-01-25T17:37:16.954Z,1.96
2018-01-25T17:39:43.188Z,2.07
2018-01-25T17:42:09.440Z,2.04
2018-01-25T17:44:35.704Z,2.04
2018-01-25T17:47:01.989Z,1.89
2018-01-25T17:49:28.292Z,1.80
2018-01-25T17:51:54.545Z,1.92
2018-01-25T17:54:20.737Z,1.91
2018-01-25T17:56:46.981Z,1.85
2018-01-25T17:59:13.259Z,1.76
2018-01-25T18:01:39.480Z,1.70
2018-01-25T18:04:05.733Z,1.60
2018-01-25T18:06:31.988Z,1.55
2018-01-25T18:08:58.193Z,1.52
2018-01-25T18:11:24.456Z,1.43
2018-01-25T18:13:50.689Z,1.47
2018-01-25T18:16:16.892Z,1.41
2018-01-25T18:18:43.137Z,1.27
2018-01-25T18:21:09.412Z,1.23
2018-01-25T18:23:35.697Z,1.16
2018-01-25T18:26:01.992Z,1.12
2018-01-25T18:28:28.196Z,1.18
2018-01-25T18:30:54.428Z,1.12
2018-01-25T18:33:20.792Z,1.10
2018-01-25T18:35:46.969Z,1.04
2018-01-25T18:38:13.197Z,0.88
2018-01-25T18:40:39.504Z,0.91
2018-01-25T18:43:05.704Z,0.96
2018-01-25T18:45:32.148Z,0.87
2018-01-25T18:47:58.368Z,0.72
2018-01-25T18:50:24.600Z,0.83
2018-01-25T18:52:50.873Z,0.72
2018-01-25T18:55:17.144Z,0.89
2018-01-25T18:57:43.360Z,0.89
2018-01-25T19:00:09.685Z,0.84
2018-01-25T19:02:35.932Z,0.67
2018-01-25T19:05:02.194Z,0.80
2018-01-25T19:07:28.387Z,0.76
2018-01-25T19:09:54.662Z,0.66
2018-01-25T19:12:20.920Z,0.58
2018-01-25T19:14:47.184Z,0.60
2018-01-25T19:17:13.433Z,0.61
2018-01-25T19:19:39.624Z,0.63
2018-01-25T19:22:05.990Z,0.62
2018-01-25T19:24:32.308Z,0.58
2018-01-25T19:26:58.560Z,0.50
2018-01-25T19:29:24.852Z,0.51
2018-01-25T19:31:51.695Z,0.44
2018-01-25T19:34:17.922Z,0.43
2018-01-25T19:36:44.136Z,0.38
2018-01-25T19:39:10.357Z,0.44
2018-01-25T19:41:36.584Z,0.43
2018-01-25T19:44:02.899Z,0.36
2018-01-25T19:46:29.145Z,0.40
2018-01-25T19:48:55.332Z,0.20
2018-01-25T19:51:21.557Z,0.29
2018-01-25T19:53:47.809Z,0.23
2018-01-25T19:56:14.010Z,0.34
2018-01-25T19:58:40.297Z,0.25
2018-01-25T20:01:06.565Z,0.11
2018-01-25T20:03:32.805Z,0.04
2018-01-25T20:05:59.037Z,-0.05
2018-01-25T20:08:25.300Z,-0.05
2018-01-25T20:10:51.766Z,0.07
2018-01-25T20:13:17.994Z,-0.21
2018-01-25T20:15:45.253Z,-0.05
2018-01-25T20:18:11.468Z,-0.06
2018-01-25T20:20:38.574Z,-0.06
2018-01-25T20:23:04.869Z,-0.02
2018-01-25T20:25:31.033Z,-0.30
2018-01-25T20:27:57.237Z,-0.21
2018-01-25T20:30:23.532Z,-0.32
2018-01-25T20:32:49.781Z,-0.30
2018-01-25T20:35:15.997Z,-0.24
2018-01-25T20:37:42.261Z,-0.22
2018-01-25T20:40:08.486Z,-0.56
2018-01-25T20:42:34.709Z,-0.58
2018-01-25T20:45:00.967Z,-0.67
2018-01-25T20:47:27.217Z,-0.67
2018-01-25T20:49:53.457Z,-0.59
2018-01-25T20:52:19.749Z,-0.31
2018-01-25T20:54:46.078Z,-0.36
2018-01-25T20:57:12.269Z,-0.36
2018-01-25T20:59:38.490Z,-0.37
2018-01-25T21:02:04.717Z,-0.47
2018-01-25T21:04:30.930Z,-0.37
2018-01-25T21:06:57.135Z,-0.40
2018-01-25T21:09:23.473Z,-0.48
2018-01-25T21:11:49.663Z,-0.55
2018-01-25T21:14:15.881Z,-0.64
2018-01-25T21:16:42.086Z,-0.64
2018-01-25T21:19:08.312Z,-0.67
2018-01-25T21:21:34.852Z,-0.71
2018-01-25T21:24:01.082Z,-0.59
2018-01-25T21:26:27.317Z,-0.61
2018-01-25T21:28:53.564Z,-0.79
2018-01-25T21:31:19.845Z,-0.75
2018-01-25T21:33:46.134Z,-0.99
2018-01-25T21:36:12.357Z,-1.18
2018-01-25T21:38:38.557Z,-1.09
2018-01-25T21:41:04.765Z,-1.11
2018-01-25T21:43:30.998Z,-1.08
2018-01-25T21:45:57.249Z,-1.02
2018-01-25T21:48:23.508Z,-1.10
2018-01-25T21:50:49.888Z,-1.13
2018-01-25T21:53:16.069Z,-1.12
2018-01-25T21:55:42.264Z,-1.05
2018-01-25T21:58:08.528Z,-0.94
2018-01-25T22:00:34.892Z,-1.29
2018-01-25T22:03:01.100Z,-1.12
2018-01-25T22:05:27.360Z,-1.20
2018-01-25T22:07:53.568Z,-1.30
2018-01-25T22:10:19.750Z,-1.28
2018-01-25T22:12:46.212Z,-1.24
2018-01-25T22:15:12.421Z,-1.32
2018-01-25T22:17:38.645Z,-1.29
2018-01-25T22:20:04.941Z,-1.34
2018-01-25T22:22:31.121Z,-1.35
2018-01-25T22:24:57.370Z,-1.28
2018-01-25T22:27:23.621Z,-1.24
2018-01-25T22:29:49.808Z,-1.16
2018-01-25T22:32:16.089Z,-1.14
2018-01-25T22:34:42.380Z,-1.28
2018-01-25T22:37:08.579Z,-1.19
2018-01-25T22:39:34.892Z,-1.07
2018-01-25T22:42:01.152Z,-1.07
2018-01-25T22:44:27.364Z,-1.10
2018-01-25T22:46:53.588Z,-1.37
2018-01-25T22:49:19.780Z,-1.40
2018-01-25T22:51:46.057Z,-1.50
2018-01-25T22:54:12.308Z,-1.51
2018-01-25T22:56:38.501Z,-1.40
2018-01-25T22:59:04.747Z,-1.44
2018-01-25T23:01:30.980Z,-1.51
2018-01-25T23:03:57.213Z,-1.37
2018-01-25T23:06:23.421Z,-1.48
2018-01-25T23:08:49.661Z,-1.45
2018-01-25T23:11:16.016Z,-1.39
2018-01-25T23:13:42.204Z,-1.39
2018-01-25T23:16:08.449Z,-1.36
2018-01-25T23:18:34.791Z,-1.46
2018-01-25T23:21:01.262Z,-1.54
2018-01-25T23:23:27.644Z,-1.56
2018-01-25T23:25:54.149Z,-1.57
2018-01-25T23:28:20.561Z,-1.49
2018-01-25T23:30:47.014Z,-1.50
2018-01-25T23:33:13.449Z,-1.43
2018-01-25T23:35:39.861Z,-1.81
2018-01-25T23:38:06.305Z,-1.76
2018-01-25T23:40:32.861Z,-1.57
2018-01-25T23:42:59.237Z,-1.54
2018-01-25T23:45:25.725Z,-1.59
2018-01-25T23:47:52.190Z,-1.76
2018-01-25T23:50:18.563Z,-2.15
2018-01-25T23:52:45.046Z,-2.19
2018-01-25T23:55:11.477Z,-2.05
2018-01-25T23:57:37.913Z,-1.91
